Time;durP1;ratioP1;P1;durP2;ratioP2;P2;SDS_P1;SDS_P2;PMS_P1;PMS_P2;Temp;Humidity;BMP_temperature;BMP_pressure;BME280_temperature;BME280_humidity;BME280_pressure;Samples;Min_cycle;Max_cycle;Signal;HPM_P1;HPM_P2
2022/10/04 00:01:20;;;;;;;8.43;3.10;;;;;;;12.46;100.00;102374.28;4961589;28;20196;-72
2022/10/04 00:03:50;;;;;;;4.27;2.90;;;;;;;12.73;100.00;102399.06;5006903;28;20592;-72
2022/10/04 00:06:20;;;;;;;6.23;3.00;;;;;;;12.58;100.00;102397.13;5021438;28;20470;-72
2022/10/04 00:09:03;;;;;;;12.10;4.00;;;;;;;12.59;100.00;102389.91;5005447;28;20439;-72
2022/10/04 00:11:30;;;;;;;10.80;3.20;;;;;;;12.69;100.00;102392.38;5011697;28;20447;-72
2022/10/04 00:13:59;;;;;;;7.07;3.23;;;;;;;12.60;100.00;102391.56;5014384;28;20481;-72
2022/10/04 00:16:35;;;;;;;8.93;2.80;;;;;;;12.50;100.00;102355.94;5016086;28;20569;-72
2022/10/04 00:19:18;;;;;;;5.30;2.83;;;;;;;12.62;100.00;102394.94;5001839;28;20475;-72
2022/10/04 00:21:55;;;;;;;6.80;2.57;;;;;;;12.75;100.00;102395.19;5005923;28;20538;-73
2022/10/04 00:24:31;;;;;;;7.47;3.13;;;;;;;12.61;100.00;102390.53;5003868;28;20894;-73
2022/10/04 00:27:18;;;;;;;14.77;3.63;;;;;;;12.65;100.00;102383.81;5022312;28;20523;-73
2022/10/04 00:30:08;;;;;;;5.50;3.00;;;;;;;12.33;100.00;102347.94;5006122;28;20533;-72
2022/10/04 00:32:40;;;;;;;8.27;2.70;;;;;;;12.61;100.00;102377.94;5021271;28;20538;-72
2022/10/04 00:35:46;;;;;;;7.67;2.73;;;;;;;12.69;100.00;102373.53;5021790;28;20841;-73
2022/10/04 00:38:23;;;;;;;9.00;3.67;;;;;;;12.56;100.00;102379.47;4968998;28;20532;-73
2022/10/04 00:41:07;;;;;;;10.53;3.30;;;;;;;12.30;100.00;102318.69;5021251;28;20490;-72
2022/10/04 00:43:45;;;;;;;9.07;3.73;;;;;;;12.53;100.00;102356.44;5019959;28;20455;-72
2022/10/04 00:46:17;;;;;;;8.50;3.00;;;;;;;12.50;100.00;102369.38;5005717;28;20435;-73
2022/10/04 00:48:52;;;;;;;9.27;2.83;;;;;;;12.65;100.00;102356.88;5016204;28;20447;-74
2022/10/04 00:51:37;;;;;;;15.73;3.80;;;;;;;12.59;100.00;102357.59;5020798;28;20461;-73
2022/10/04 00:54:10;;;;;;;13.23;4.03;;;;;;;12.20;100.00;102309.97;5017322;28;20474;-71
2022/10/04 00:56:51;;;;;;;13.10;3.97;;;;;;;12.41;100.00;102323.69;5022438;28;20490;-72
2022/10/04 00:59:28;;;;;;;9.57;3.47;;;;;;;12.58;100.00;102351.38;5019800;28;20451;-70
2022/10/04 01:02:00;;;;;;;11.00;4.23;;;;;;;12.56;100.00;102352.56;5019741;28;20451;-71
2022/10/04 01:04:38;;;;;;;12.30;4.20;;;;;;;11.68;100.00;102197.50;5006114;28;20886;-72
2022/10/04 01:07:05;;;;;;;6.50;3.20;;;;;;;12.36;100.00;102314.47;5016281;28;20439;-70
2022/10/04 01:09:45;;;;;;;6.87;3.43;;;;;;;12.39;100.00;102331.09;5014058;28;20444;-73
2022/10/04 01:12:22;;;;;;;11.93;3.83;;;;;;;12.34;100.00;102311.94;5014039;28;20787;-71
2022/10/04 01:14:50;;;;;;;15.57;4.00;;;;;;;12.57;100.00;102332.69;5000211;28;20445;-72
2022/10/04 01:17:16;;;;;;;18.10;4.50;;;;;;;12.25;100.00;102301.38;5016769;28;20554;-74
2022/10/04 01:19:52;;;;;;;8.30;3.83;;;;;;;12.09;100.00;102261.94;5000571;28;20441;-71
2022/10/04 01:22:43;;;;;;;13.50;4.80;;;;;;;12.40;100.00;102318.47;5013469;28;20191;-71
2022/10/04 01:25:09;;;;;;;10.90;3.70;;;;;;;12.16;100.00;102276.38;5015516;28;20439;-71
2022/10/04 01:27:40;;;;;;;10.93;3.77;;;;;;;12.35;100.00;102297.50;4999073;28;20458;-71
2022/10/04 01:30:13;;;;;;;13.30;4.27;;;;;;;11.82;100.00;102231.75;4999047;28;20196;-72
2022/10/04 01:32:39;;;;;;;7.20;3.80;;;;;;;12.21;100.00;102272.16;5014579;28;20463;-71
2022/10/04 01:35:11;;;;;;;10.50;4.20;;;;;;;11.93;100.00;102236.78;5018162;28;20528;-72
2022/10/04 01:37:38;;;;;;;12.43;3.90;;;;;;;12.10;100.00;102264.47;5017609;28;20446;-72
2022/10/04 01:40:05;;;;;;;10.00;4.03;;;;;;;12.23;100.00;102271.97;5005217;28;21017;-71
2022/10/04 01:42:41;;;;;;;12.40;4.10;;;;;;;12.47;100.00;102310.53;5015826;28;20820;-72
2022/10/04 01:45:34;;;;;;;13.70;4.83;;;;;;;12.54;100.00;102303.44;5014760;28;20466;-71
2022/10/04 01:48:02;;;;;;;15.47;4.80;;;;;;;11.81;100.00;102200.50;5015568;28;20541;-71
2022/10/04 01:50:33;;;;;;;8.97;4.30;;;;;;;12.49;100.00;102303.97;5014673;28;20443;-71
2022/10/04 01:53:28;;;;;;;6.83;4.00;;;;;;;12.36;100.00;102296.47;5016396;28;20474;-72
2022/10/04 01:56:09;;;;;;;11.60;5.13;;;;;;;12.02;100.00;102229.53;5011618;28;20983;-72
2022/10/04 01:58:43;;;;;;;11.07;4.50;;;;;;;12.51;100.00;102295.72;5018014;28;20557;-72
2022/10/04 02:01:47;;;;;;;13.53;5.27;;;;;;;12.49;100.00;102292.34;5016823;28;20489;-71
2022/10/04 02:04:31;;;;;;;13.20;5.30;;;;;;;12.30;100.00;102262.19;4950194;28;20474;-70
2022/10/04 02:07:00;;;;;;;11.30;5.00;;;;;;;11.76;100.00;102176.00;5015663;28;21006;-72
2022/10/04 02:09:34;;;;;;;10.70;4.50;;;;;;;12.51;100.00;102291.19;5016375;28;20484;-72
2022/10/04 02:12:00;;;;;;;11.43;4.27;;;;;;;12.30;100.00;102248.75;5016219;28;20440;-73
2022/10/04 02:14:32;;;;;;;11.90;4.97;;;;;;;12.34;100.00;102270.75;5023150;28;20466;-74
2022/10/04 02:17:01;;;;;;;9.07;4.07;;;;;;;12.39;100.00;102252.22;5017861;28;21224;-72
2022/10/04 02:19:39;;;;;;;9.00;4.57;;;;;;;11.90;100.00;102196.81;5016575;28;20866;-74
2022/10/04 02:22:08;;;;;;;14.30;4.97;;;;;;;12.18;100.00;102247.47;5018661;28;20447;-72
2022/10/04 02:24:37;;;;;;;12.40;5.60;;;;;;;10.86;100.00;102025.84;5018124;28;20467;-70
2022/10/04 02:27:04;;;;;;;12.27;5.30;;;;;;;11.95;100.00;102185.53;5020712;28;21035;-70
2022/10/04 02:29:30;;;;;;;10.40;4.40;;;;;;;12.15;100.00;102232.50;5014953;28;20438;-73
2022/10/04 02:34:40;;;;;;;14.53;5.47;;;;;;;12.24;100.00;102222.53;5020869;28;20284;-72
2022/10/04 02:37:07;;;;;;;13.23;4.80;;;;;;;12.57;100.00;102276.16;5007297;28;20502;-73
2022/10/04 02:39:38;;;;;;;12.40;4.40;;;;;;;12.36;100.00;102221.13;5023792;28;20442;-72
2022/10/04 02:42:16;;;;;;;10.30;4.63;;;;;;;12.41;100.00;102245.66;5021637;28;20869;-72
2022/10/04 02:44:49;;;;;;;10.57;5.20;;;;;;;12.62;100.00;102268.41;5021142;28;20450;-71
2022/10/04 02:47:19;;;;;;;11.13;4.37;;;;;;;12.28;100.00;102231.09;5008839;28;20442;-71
2022/10/04 02:49:59;;;;;;;11.40;4.53;;;;;;;12.50;100.00;102261.72;5022274;28;20435;-71
2022/10/04 02:52:48;;;;;;;14.13;5.53;;;;;;;12.43;100.00;102259.75;5023506;28;20450;-70
2022/10/04 02:55:30;;;;;;;12.50;4.40;;;;;;;12.12;100.00;102221.22;5018952;28;20466;-75
2022/10/04 02:57:57;;;;;;;10.10;4.80;;;;;;;12.32;100.00;102243.16;5023059;28;20446;-72
2022/10/04 03:00:26;;;;;;;13.70;5.07;;;;;;;12.27;100.00;102246.41;5019993;28;20443;-72
2022/10/04 03:03:15;;;;;;;12.67;4.67;;;;;;;12.28;100.00;102242.69;5020688;28;20479;-75
2022/10/04 03:05:43;;;;;;;13.33;5.00;;;;;;;12.11;100.00;102227.63;5023783;28;20489;-75
2022/10/04 03:08:10;;;;;;;11.77;5.17;;;;;;;12.13;100.00;102223.75;5004837;28;20447;-72
2022/10/04 03:10:36;;;;;;;11.37;5.83;;;;;;;11.89;100.00;102178.13;5019937;28;21035;-73
2022/10/04 03:13:03;;;;;;;11.90;5.20;;;;;;;11.58;100.00;102127.84;5011464;28;20447;-74
2022/10/04 03:15:29;;;;;;;17.00;4.50;;;;;;;12.15;100.00;102215.50;5022556;28;20514;-73
2022/10/04 03:17:54;;;;;;;11.93;5.13;;;;;;;12.16;100.00;102212.66;5023991;28;20432;-73
2022/10/04 03:20:20;;;;;;;10.07;4.50;;;;;;;11.94;100.00;102186.53;5024405;28;20438;-75
2022/10/04 03:22:52;;;;;;;11.73;5.40;;;;;;;12.00;100.00;102218.09;5024849;28;20258;-76
2022/10/04 03:25:22;;;;;;;12.60;5.43;;;;;;;11.89;100.00;102179.00;5025465;28;20181;-72
2022/10/04 03:27:49;;;;;;;16.87;6.30;;;;;;;11.52;100.00;102117.81;5021730;28;20447;-73
2022/10/04 03:30:19;;;;;;;16.40;5.93;;;;;;;11.93;100.00;102201.81;5023834;28;20428;-72
2022/10/04 03:32:46;;;;;;;11.63;5.20;;;;;;;12.07;100.00;102216.41;5006069;28;20534;-72
2022/10/04 03:35:19;;;;;;;10.70;5.10;;;;;;;11.98;100.00;102210.22;5021388;28;20565;-73
2022/10/04 03:37:45;;;;;;;23.17;6.23;;;;;;;11.91;100.00;102195.78;5022554;28;20526;-73
2022/10/04 03:40:12;;;;;;;12.47;4.93;;;;;;;11.99;100.00;102194.91;5022186;28;20427;-74
2022/10/04 03:42:39;;;;;;;11.93;5.47;;;;;;;12.05;100.00;102214.88;5020787;28;20463;-73
2022/10/04 03:45:14;;;;;;;14.53;5.40;;;;;;;11.99;100.00;102195.75;5018376;28;20498;-72
2022/10/04 03:47:44;;;;;;;12.17;5.30;;;;;;;11.77;100.00;102166.91;5022585;28;20443;-73
2022/10/04 03:50:32;;;;;;;11.50;5.77;;;;;;;11.94;100.00;102203.50;5004702;28;20444;-74
2022/10/04 03:53:10;;;;;;;11.60;5.80;;;;;;;11.84;100.00;102204.69;5018858;28;20918;-73
2022/10/04 03:55:40;;;;;;;13.73;5.93;;;;;;;12.01;100.00;102209.03;5020938;28;20471;-72
2022/10/04 03:58:08;;;;;;;13.50;5.57;;;;;;;11.90;100.00;102201.34;5021973;28;20443;-73
2022/10/04 04:00:43;;;;;;;15.00;6.33;;;;;;;11.80;100.00;102195.28;5011190;28;21104;-73
2022/10/04 04:03:19;;;;;;;9.67;4.93;;;;;;;11.90;100.00;102218.31;5017644;28;20470;-73
2022/10/04 04:05:58;;;;;;;15.50;6.17;;;;;;;11.52;100.00;102156.25;5021568;28;20454;-76
2022/10/04 04:08:38;;;;;;;9.57;5.60;;;;;;;11.96;100.00;102214.09;5010466;28;20438;-73
2022/10/04 04:11:06;;;;;;;9.33;5.00;;;;;;;11.76;100.00;102205.56;5021930;28;20438;-73
2022/10/04 04:13:50;;;;;;;10.87;6.37;;;;;;;11.87;100.00;102207.06;5007087;28;20900;-70
2022/10/04 04:16:19;;;;;;;9.10;5.40;;;;;;;11.91;100.00;102209.22;5019034;28;20470;-71
2022/10/04 04:18:47;;;;;;;11.77;5.97;;;;;;;11.81;100.00;102200.50;5019326;28;20459;-72
2022/10/04 04:21:18;;;;;;;15.10;7.07;;;;;;;11.80;100.00;102192.59;5023431;28;20435;-72
2022/10/04 04:24:00;;;;;;;12.43;6.53;;;;;;;11.92;100.00;102204.72;5007648;28;20455;-71
2022/10/04 04:26:41;;;;;;;12.33;6.67;;;;;;;11.88;100.00;102220.31;5022582;28;20443;-73
2022/10/04 04:29:21;;;;;;;13.43;6.77;;;;;;;11.89;100.00;102216.66;5019676;28;20508;-73
2022/10/04 04:31:53;;;;;;;18.90;6.57;;;;;;;11.93;100.00;102201.00;5018991;28;20432;-72
2022/10/04 04:34:23;;;;;;;10.10;5.87;;;;;;;11.99;100.00;102203.81;5006245;28;20478;-74
2022/10/04 04:36:51;;;;;;;11.27;5.60;;;;;;;11.45;100.00;102114.94;5021700;28;21251;-75
2022/10/04 04:39:42;;;;;;;12.97;5.90;;;;;;;11.86;100.00;102182.03;5019903;28;20439;-73
2022/10/04 04:42:16;;;;;;;14.90;6.30;;;;;;;11.93;100.00;102203.69;5019853;28;20523;-74
2022/10/04 04:44:48;;;;;;;7.17;4.93;;;;;;;11.74;100.00;102169.94;5020591;28;20455;-71
2022/10/04 04:47:28;;;;;;;8.50;5.50;;;;;;;12.00;100.00;102193.88;5020319;28;20432;-72
2022/10/04 04:49:57;;;;;;;9.20;5.73;;;;;;;11.88;100.00;102181.84;5009385;28;20448;-71
2022/10/04 04:52:27;;;;;;;13.50;6.30;;;;;;;11.80;100.00;102163.88;5003169;28;20470;-70
2022/10/04 04:54:55;;;;;;;11.27;6.33;;;;;;;11.82;100.00;102155.63;5016384;28;20447;-74
2022/10/04 04:57:21;;;;;;;11.10;6.13;;;;;;;11.92;100.00;102183.19;5020708;28;20567;-70
2022/10/04 04:59:52;;;;;;;11.20;6.53;;;;;;;12.00;100.00;102175.06;5006747;28;20815;-72
2022/10/04 05:02:36;;;;;;;7.60;5.90;;;;;;;11.81;100.00;102154.81;5021994;28;20452;-70
2022/10/04 05:07:34;;;;;;;12.53;5.50;;;;;;;9.47;100.00;101774.03;5080276;23;20485;-77
2022/10/04 05:09:59;;;;;;;11.00;5.53;;;;;;;10.35;100.00;101936.75;5072679;28;20439;-77
2022/10/04 05:12:24;;;;;;;12.87;6.50;;;;;;;9.80;100.00;101859.72;5071900;28;20649;-77
2022/10/04 05:14:52;;;;;;;8.00;5.60;;;;;;;10.93;100.00;102042.94;5073906;28;20646;-76
2022/10/04 05:17:22;;;;;;;8.50;5.63;;;;;;;10.29;100.00;101946.31;5073146;28;20240;-76
2022/10/04 05:19:49;;;;;;;11.17;6.00;;;;;;;10.94;100.00;102049.16;5071123;28;20440;-76
2022/10/04 05:22:19;;;;;;;10.90;6.40;;;;;;;10.84;100.00;102001.84;5063619;28;20445;-78
2022/10/04 05:24:49;;;;;;;14.40;6.53;;;;;;;10.37;100.00;101961.56;5064311;28;20438;-77
2022/10/04 05:27:27;;;;;;;13.43;6.60;;;;;;;11.92;100.00;102172.44;5064060;28;20460;-76
2022/10/04 05:30:00;;;;;;;12.30;6.50;;;;;;;11.94;100.00;102173.91;5067507;28;20432;-76
2022/10/04 05:32:36;;;;;;;18.37;6.60;;;;;;;10.11;100.00;101905.41;5067279;28;20456;-76
2022/10/04 05:35:14;;;;;;;11.20;6.40;;;;;;;10.32;100.00;101912.94;5070961;28;20552;-77
2022/10/04 05:38:15;;;;;;;11.93;7.77;;;;;;;11.81;100.00;102173.63;5069927;28;20482;-78
2022/10/04 05:41:09;;;;;;;14.30;6.23;;;;;;;10.16;100.00;101895.03;5060619;28;20428;-76
2022/10/04 05:43:37;;;;;;;14.00;8.17;;;;;;;9.90;100.00;101865.75;5069194;28;20473;-76
2022/10/04 05:46:21;;;;;;;17.10;7.10;;;;;;;11.86;100.00;102162.34;5065813;28;20465;-77
2022/10/04 05:48:52;;;;;;;13.87;7.17;;;;;;;10.67;100.00;101981.44;5058079;28;21048;-77
2022/10/04 05:51:23;;;;;;;13.87;7.10;;;;;;;10.10;100.00;101912.63;5067399;28;20459;-78
2022/10/04 05:53:49;;;;;;;13.73;8.00;;;;;;;9.15;100.00;101770.34;5068186;28;20506;-79
2022/10/04 05:56:24;;;;;;;13.03;7.60;;;;;;;11.82;100.00;102185.22;5066144;28;20492;-79
2022/10/04 05:59:27;;;;;;;18.53;8.37;;;;;;;11.73;100.00;102163.72;5068677;28;20440;-77
2022/10/04 06:01:55;;;;;;;17.63;8.43;;;;;;;11.27;100.00;102072.22;5056756;28;20433;-83
2022/10/04 06:04:23;;;;;;;15.10;8.03;;;;;;;11.79;100.00;102166.75;5067997;28;20428;-77
2022/10/04 06:06:55;;;;;;;13.40;7.40;;;;;;;10.45;100.00;101979.50;5072014;28;20490;-78
2022/10/04 06:09:27;;;;;;;13.93;7.50;;;;;;;11.85;100.00;102161.53;5075547;28;20431;-78
2022/10/04 06:12:12;;;;;;;15.23;7.97;;;;;;;10.73;100.00;102010.31;5053237;28;20887;-78
2022/10/04 06:15:19;;;;;;;14.23;7.27;;;;;;;10.69;100.00;102002.75;5063748;28;20437;-78
2022/10/04 06:17:54;;;;;;;13.93;7.70;;;;;;;9.86;100.00;101856.34;5019166;28;20506;-81
2022/10/04 06:20:53;;;;;;;17.33;7.47;;;;;;;11.80;100.00;102158.50;5051565;28;20440;-78
2022/10/04 06:23:20;;;;;;;12.73;7.27;;;;;;;9.70;100.00;101855.38;5045154;28;20446;-77
2022/10/04 06:26:08;;;;;;;21.13;9.07;;;;;;;11.19;100.00;102087.50;5051547;28;20469;-78
2022/10/04 06:28:45;;;;;;;19.00;8.40;;;;;;;10.20;100.00;101928.53;5067072;28;20966;-79
2022/10/04 06:31:53;;;;;;;19.13;8.37;;;;;;;11.91;100.00;102144.69;5056675;28;20445;-79
2022/10/04 06:34:44;;;;;;;18.10;8.23;;;;;;;11.92;100.00;102150.94;5069489;28;20797;-82
2022/10/04 06:37:28;;;;;;;14.10;7.80;;;;;;;11.89;100.00;102144.06;5045983;28;20468;-79
2022/10/04 06:40:02;;;;;;;13.70;8.53;;;;;;;11.97;100.00;102137.78;5070354;28;20441;-78
2022/10/04 06:43:07;;;;;;;13.60;7.57;;;;;;;11.33;100.00;102081.41;5070519;28;20440;-78
2022/10/04 06:45:41;;;;;;;14.83;7.90;;;;;;;11.93;100.00;102131.09;5063761;28;20491;-78
2022/10/04 06:48:13;;;;;;;16.50;8.20;;;;;;;11.92;100.00;102134.81;5073362;28;20464;-77
2022/10/04 06:50:44;;;;;;;11.83;8.47;;;;;;;11.95;100.00;102129.91;5073316;28;20435;-78
2022/10/04 06:53:17;;;;;;;16.80;8.73;;;;;;;10.30;100.00;101907.78;5076920;28;20535;-78
2022/10/04 06:56:04;;;;;;;10.63;7.50;;;;;;;11.92;100.00;102127.56;5072751;28;20507;-77
2022/10/04 06:58:35;;;;;;;13.90;7.77;;;;;;;11.92;100.00;102137.50;5074680;28;20493;-78
2022/10/04 07:01:19;;;;;;;12.30;7.70;;;;;;;11.83;100.00;102147.41;5067641;28;20432;-75
2022/10/04 07:03:53;;;;;;;17.53;8.77;;;;;;;9.27;100.00;101736.88;5073194;28;20446;-76
2022/10/04 07:06:36;;;;;;;13.70;8.00;;;;;;;9.48;100.00;101794.44;5065821;28;20475;-79
2022/10/04 07:09:06;;;;;;;22.53;8.47;;;;;;;10.16;100.00;101900.41;5061477;28;20949;-79
2022/10/04 07:11:44;;;;;;;14.03;8.60;;;;;;;9.49;100.00;101809.53;5051326;28;20474;-78
2022/10/04 07:14:31;;;;;;;18.07;9.20;;;;;;;10.85;100.00;102019.66;5050972;28;20445;-77
2022/10/04 07:17:04;;;;;;;18.83;9.20;;;;;;;9.05;100.00;101705.44;5067383;28;20890;-78
2022/10/04 07:19:38;;;;;;;21.77;8.50;;;;;;;11.86;100.00;102146.22;5065381;28;20429;-78
2022/10/04 07:22:06;;;;;;;15.20;9.67;;;;;;;12.02;100.00;102142.63;5041587;28;20440;-78
2022/10/04 07:24:53;;;;;;;14.00;9.17;;;;;;;12.16;100.00;102141.88;5063795;28;20567;-77
2022/10/04 07:27:26;;;;;;;13.43;8.20;;;;;;;9.54;100.00;101702.69;5064868;28;20454;-78
2022/10/04 07:29:55;;;;;;;15.10;9.10;;;;;;;11.12;100.00;101981.81;5070930;28;20432;-78
2022/10/04 07:32:29;;;;;;;16.30;8.10;;;;;;;12.30;100.00;102178.78;5061320;28;20927;-77
2022/10/04 07:35:12;;;;;;;13.40;8.60;;;;;;;12.10;100.00;102121.91;5062512;28;20428;-77
2022/10/04 07:37:56;;;;;;;14.30;7.77;;;;;;;12.17;100.00;102117.47;5065519;28;20493;-79
2022/10/04 07:40:44;;;;;;;15.03;8.60;;;;;;;12.16;100.00;102121.19;5068450;28;20441;-79
2022/10/04 07:43:19;;;;;;;13.20;7.87;;;;;;;9.59;100.00;101697.69;5069838;28;20437;-78
2022/10/04 07:45:46;;;;;;;16.50;8.77;;;;;;;12.06;100.00;102155.53;5047121;28;20445;-78
2022/10/04 07:48:21;;;;;;;13.67;8.03;;;;;;;9.63;100.00;101714.22;5057123;28;20485;-78
2022/10/04 07:51:21;;;;;;;15.80;9.60;;;;;;;12.00;100.00;102115.91;5046438;28;20458;-77
2022/10/04 07:53:57;;;;;;;14.73;8.70;;;;;;;11.97;100.00;102130.53;5069033;28;20429;-76
2022/10/04 07:56:36;;;;;;;14.80;7.60;;;;;;;9.32;100.00;101687.38;5058978;28;20506;-77
2022/10/04 07:59:27;;;;;;;11.63;7.60;;;;;;;12.23;100.00;102137.44;5041316;28;20445;-77
2022/10/04 08:02:18;;;;;;;13.60;7.20;;;;;;;11.52;100.00;102027.28;5049372;28;22830;-77
2022/10/04 08:04:57;;;;;;;13.00;7.87;;;;;;;10.15;100.00;101765.50;5041718;28;20523;-77
2022/10/04 08:07:58;;;;;;;15.87;8.03;;;;;;;11.89;100.00;101973.81;5037959;28;20468;-77
2022/10/04 08:10:34;;;;;;;14.03;8.20;;;;;;;12.88;100.00;102126.19;5062769;28;20432;-79
2022/10/04 08:13:20;;;;;;;16.80;7.97;;;;;;;12.96;100.00;102124.41;5060051;28;20438;-76
2022/10/04 08:15:46;;;;;;;12.53;7.40;;;;;;;10.96;100.00;101787.56;5069841;28;20493;-77
2022/10/04 08:18:54;;;;;;;22.27;8.00;;;;;;;13.34;100.00;102117.16;5070238;28;20520;-77
2022/10/04 08:21:31;;;;;;;18.97;8.97;;;;;;;10.77;100.00;101684.22;5034205;28;20194;-77
2022/10/04 08:24:10;;;;;;;17.13;7.63;;;;;;;12.71;100.00;102002.69;5070807;28;20956;-78
2022/10/04 08:26:53;;;;;;;13.50;7.73;;;;;;;13.41;100.00;102090.31;5069595;28;20928;-77
2022/10/04 08:29:46;;;;;;;12.47;8.67;;;;;;;11.47;100.00;101822.78;5069845;28;20447;-78
2022/10/04 08:32:37;;;;;;;13.63;6.90;;;;;;;12.35;100.00;101958.47;5071562;28;20906;-79
2022/10/04 08:35:21;;;;;;;13.50;7.80;;;;;;;12.84;100.00;102036.03;5074071;28;20440;-77
2022/10/04 08:38:01;;;;;;;13.67;7.77;;;;;;;13.00;100.00;102085.34;5069190;28;20444;-77
2022/10/04 08:41:01;;;;;;;11.17;6.30;;;;;;;13.09;100.00;102086.94;5064906;28;20440;-77
2022/10/04 08:44:04;;;;;;;13.20;7.80;;;;;;;13.00;100.00;102086.19;5074521;28;20428;-80
2022/10/04 08:46:39;;;;;;;14.30;8.63;;;;;;;12.93;100.00;102098.72;5064663;28;20455;-78
2022/10/04 08:49:38;;;;;;;14.43;8.57;;;;;;;10.88;100.00;101790.34;5078517;28;20797;-77
2022/10/04 08:52:26;;;;;;;13.90;8.50;;;;;;;12.92;100.00;102098.88;5049168;28;20437;-77
2022/10/04 08:55:06;;;;;;;8.30;6.70;;;;;;;13.06;100.00;102093.50;5073152;28;20458;-77
2022/10/04 08:57:53;;;;;;;12.20;6.93;;;;;;;13.35;100.00;102086.50;5053281;28;20440;-77
2022/10/04 09:00:46;;;;;;;15.43;7.20;;;;;;;13.50;100.00;102094.56;5074298;28;20448;-77
2022/10/04 09:03:35;;;;;;;12.97;7.80;;;;;;;12.02;100.00;101846.84;5053719;28;20432;-76
2022/10/04 09:06:30;;;;;;;17.77;8.63;;;;;;;12.26;100.00;101845.75;5073772;28;20470;-78
2022/10/04 09:09:01;;;;;;;14.33;7.50;;;;;;;13.81;100.00;102082.72;5049627;28;20527;-77
2022/10/04 09:12:08;;;;;;;13.53;6.50;;;;;;;14.05;100.00;102081.53;5073681;28;20483;-77
2022/10/04 09:15:05;;;;;;;16.20;8.33;;;;;;;12.43;100.00;101866.88;5065465;28;20456;-77
2022/10/04 09:17:54;;;;;;;13.57;7.70;;;;;;;13.83;100.00;102115.69;5077459;28;20845;-79
2022/10/04 09:20:23;;;;;;;16.07;7.27;;;;;;;14.00;100.00;102082.09;5061586;28;20447;-77
2022/10/04 09:23:00;;;;;;;13.17;7.20;;;;;;;13.61;100.00;101980.88;5071975;28;20949;-77
2022/10/04 09:25:38;;;;;;;15.17;8.10;;;;;;;12.19;100.00;101819.59;5054646;28;20782;-79
2022/10/04 09:28:16;;;;;;;12.10;8.50;;;;;;;12.48;100.00;101849.38;5077422;28;20504;-77
2022/10/04 09:30:52;;;;;;;15.90;8.57;;;;;;;14.22;100.00;102078.38;5071701;28;20440;-76
2022/10/04 09:33:24;;;;;;;15.17;6.67;;;;;;;14.34;100.00;102072.47;5076660;28;20422;-79
2022/10/04 09:35:55;;;;;;;12.03;7.30;;;;;;;14.51;100.00;102073.88;5077796;28;20837;-77
2022/10/04 09:38:27;;;;;;;12.60;7.20;;;;;;;14.67;100.00;102059.28;5073412;28;20418;-76
2022/10/04 09:41:00;;;;;;;15.03;8.20;;;;;;;14.30;100.00;102061.22;5074038;28;20429;-79
2022/10/04 09:44:03;;;;;;;14.47;7.10;;;;;;;14.76;100.00;102043.78;5072647;28;20425;-77
2022/10/04 09:46:50;;;;;;;14.77;8.20;;;;;;;14.47;100.00;102053.69;5074255;28;20459;-74
2022/10/04 09:49:31;;;;;;;15.27;7.20;;;;;;;14.68;100.00;102053.69;5071450;28;20417;-73
2022/10/04 09:52:40;;;;;;;11.83;6.00;;;;;;;13.31;100.00;101813.06;5072763;28;20408;-75
2022/10/04 09:55:24;;;;;;;10.67;6.37;;;;;;;14.56;100.00;102049.84;5014635;28;20506;-79
2022/10/04 09:58:11;;;;;;;9.87;5.47;;;;;;;14.72;100.00;102039.78;5075324;28;20432;-77
2022/10/04 10:01:08;;;;;;;16.00;7.20;;;;;;;12.79;100.00;101728.81;5070668;28;20425;-76
2022/10/04 10:03:52;;;;;;;15.60;6.50;;;;;;;14.95;100.00;102034.94;5054643;28;20786;-76
2022/10/04 10:06:30;;;;;;;16.17;6.40;;;;;;;14.43;100.00;101972.25;5075811;28;20452;-77
2022/10/04 10:09:08;;;;;;;10.90;5.73;;;;;;;12.67;100.00;101625.38;5074832;28;20448;-75
2022/10/04 10:15:00;;;;;;;10.13;5.50;;;;;;;14.95;100.00;102032.25;5080012;28;20415;-76
2022/10/04 10:17:53;;;;;;;10.63;5.47;;;;;;;14.87;100.00;102014.34;5079918;28;20452;-78
2022/10/04 10:20:49;;;;;;;10.10;5.97;;;;;;;15.12;100.00;102008.44;5068456;28;20490;-76
2022/10/04 10:23:40;;;;;;;8.53;4.83;;;;;;;12.93;100.00;101692.09;5080561;28;20504;-79
2022/10/04 10:26:21;;;;;;;9.03;4.70;;;;;;;15.52;100.00;102011.31;5078986;28;20444;-80
2022/10/04 10:29:16;;;;;;;8.57;4.90;;;;;;;13.10;100.00;101690.78;5079097;28;20453;-81
2022/10/04 10:32:35;;;;;;;7.83;4.57;;;;;;;13.73;100.00;101758.22;5079069;28;20432;-78
2022/10/04 10:35:43;;;;;;;7.57;3.87;;;;;;;15.34;100.00;101987.53;5022276;28;20446;-79
2022/10/04 10:38:34;;;;;;;9.37;4.13;;;;;;;15.73;100.00;101980.59;5079368;28;20531;-76
2022/10/04 10:41:20;;;;;;;11.13;5.10;;;;;;;15.33;100.00;102010.19;5079471;28;20421;-77
2022/10/04 10:44:18;;;;;;;10.80;4.17;;;;;;;15.67;100.00;101975.97;5077414;28;20427;-76
2022/10/04 10:47:11;;;;;;;9.30;5.00;;;;;;;15.77;100.00;101961.06;5076635;28;20445;-79
2022/10/04 10:49:54;;;;;;;6.27;4.47;;;;;;;13.30;100.00;101563.50;5077791;28;20400;-76
2022/10/04 10:52:44;;;;;;;6.37;4.00;;;;;;;15.74;100.00;101955.25;5074020;28;20438;-77
2022/10/04 10:55:19;;;;;;;7.50;3.80;;;;;;;15.73;100.00;101958.97;5076389;28;20417;-79
2022/10/04 10:58:15;;;;;;;9.47;4.00;;;;;;;14.07;100.00;101674.81;5076951;28;20409;-80
2022/10/04 11:01:11;;;;;;;12.40;4.13;;;;;;;16.03;100.00;101946.72;5076695;28;20516;-82
2022/10/04 11:04:04;;;;;;;8.40;4.47;;;;;;;16.22;100.00;101950.44;5048273;28;20429;-78
2022/10/04 11:06:41;;;;;;;5.30;3.40;;;;;;;15.60;100.00;101895.69;5076329;28;20551;-80
2022/10/04 11:09:09;;;;;;;9.67;3.30;;;;;;;15.84;100.00;101862.84;5074817;28;20437;-80
2022/10/04 11:12:04;;;;;;;7.43;3.87;;;;;;;14.88;100.00;101755.88;5066767;28;20432;-80
2022/10/04 11:14:38;;;;;;;8.03;3.70;;;;;;;16.42;100.00;101949.59;5080164;22;20504;-73
2022/10/04 11:17:26;;;;;;;10.20;3.67;;;;;;;16.54;100.00;101950.63;5057850;28;20525;-72
2022/10/04 11:20:07;;;;;;;12.73;3.77;;;;;;;15.49;100.00;101842.19;5067054;28;20424;-72
2022/10/04 11:23:04;;;;;;;6.40;3.40;;;;;;;16.56;100.00;101945.00;5055610;28;20436;-73
2022/10/04 11:25:57;;;;;;;8.03;4.20;;;;;;;16.15;100.00;101951.50;5019259;28;20485;-72
2022/10/04 11:28:45;;;;;;;13.03;4.70;;;;;;;16.55;100.00;101944.19;5028376;28;20445;-73
2022/10/04 11:31:30;;;;;;;5.97;3.40;;;;;;;16.57;100.00;101938.53;5044557;28;20796;-73
2022/10/04 11:33:55;;;;;;;7.90;3.43;;;;;;;16.94;100.00;101929.69;5009706;28;20528;-73
2022/10/04 11:36:31;;;;;;;10.83;3.30;;;;;;;16.31;100.00;101845.47;5037455;28;20470;-73
2022/10/04 11:39:19;;;;;;;8.57;3.60;;;;;;;16.79;100.00;101923.72;5043330;28;20214;-73
2022/10/04 11:42:16;;;;;;;6.57;3.50;;;;;;;16.76;100.00;101916.00;5042318;28;20434;-73
2022/10/04 11:44:58;;;;;;;7.77;3.60;;;;;;;16.91;100.00;101913.03;5034221;28;20531;-73
2022/10/04 11:47:45;;;;;;;6.03;3.63;;;;;;;16.90;100.00;101897.84;5027202;28;20647;-75
2022/10/04 11:50:35;;;;;;;9.67;3.30;;;;;;;16.91;100.00;101896.78;5037995;28;20438;-75
2022/10/04 11:53:10;;;;;;;8.97;3.70;;;;;;;16.80;100.00;101892.84;5023020;28;20438;-73
2022/10/04 11:55:56;;;;;;;9.13;3.30;;;;;;;17.12;100.00;101854.97;5019409;28;20474;-73
2022/10/04 11:58:31;;;;;;;11.57;3.60;;;;;;;16.79;100.00;101836.19;5019852;28;21086;-73
2022/10/04 12:01:15;;;;;;;7.40;3.63;;;;;;;16.77;100.00;101817.41;5034171;28;20436;-72
2022/10/04 12:04:04;;;;;;;7.70;3.43;;;;;;;17.29;100.00;101893.25;5046826;28;21631;-72
2022/10/04 12:06:36;;;;;;;5.93;3.60;;;;;;;17.53;100.00;101880.78;5037683;28;20426;-73
2022/10/04 12:09:26;;;;;;;5.87;3.13;;;;;;;17.56;100.00;101862.19;5029323;28;20954;-72
2022/10/04 12:15:38;;;;;;;5.23;3.33;;;;;;;17.42;100.00;101882.31;5042455;28;20469;-72
2022/10/04 12:18:29;;;;;;;8.17;3.00;;;;;;;17.39;100.00;101878.16;5029476;28;20418;-72